Latest Weather Observations for Geraldton Airport

IDW60801

Issued at 12:01 pm WST Wednesday 4 May 2016 (issued every 30 minutes, with the page automatically refreshed every 10 minutes)

About weather observations | Map of weather stations | Latest weather observations for WA | Other Formats
Station Details ID: 008315 Name: GERALDTON AIRPORT Lat: -28.80 Lon: 114.70 Height: 29.7 m
Data from the previous 72 hours. | See also: Recent months at Geraldton Airport
Date/Time
WST
Temp
°C
App
Temp
°C
Dew
Point
Rel
Hum
%
Delta-T
°C
Wind Press
QNH
hPa
Press
MSL
hPa
Rain
since 9 am
mm
Dir
 
Spd
km/h
Gust
km/h
Spd
kts
Gust
kts
04/12:00pm 24.7 20.1 9.5 38 8.3 SSE 24 30 13 16 1014.0 1013.9 0.0
04/11:30am 24.1 20.3 9.9 40 7.8 SE 20 30 11 16 1014.6 - 0.0
04/11:00am 23.7 19.7 10.3 42 7.4 SE 22 28 12 15 1015.1 - 0.0
04/10:30am 21.8 19.4 11.3 51 5.8 SE 15 20 8 11 1015.8 - 0.0
04/10:00am 19.8 17.4 11.3 58 4.7 SE 15 20 8 11 1016.1 - 0.0
04/09:30am 17.7 15.0 11.7 68 3.3 SSE 17 20 9 11 1016.3 - 0.0
04/09:00am 16.2 13.9 11.7 74 2.4 SE 15 17 8 9 1016.4 1016.3 0.0
04/08:30am 14.8 12.4 11.5 80 1.8 SE 15 19 8 10 1016.5 - 0.0
04/08:00am 13.0 10.5 10.9 87 1.1 SSE 15 19 8 10 1016.7 - 0.0
04/07:30am 12.1 9.9 10.8 92 0.7 SSE 13 17 7 9 1016.7 - 0.0
04/07:00am 11.3 8.5 10.1 92 0.6 SSE 15 19 8 10 1016.6 - 0.0
04/06:30am 10.4 7.8 9.4 93 0.5 S 13 15 7 8 1016.6 - 0.0
04/06:00am 10.9 8.4 9.8 93 0.6 S 13 17 7 9 1016.4 1016.3 0.0
04/05:30am 11.2 8.8 9.9 92 0.7 SSE 13 15 7 8 1016.4 - 0.0
04/05:00am 10.7 8.2 9.6 93 0.6 SSE 13 15 7 8 1016.3 - 0.0
04/04:30am 10.8 8.3 9.7 93 0.6 SSE 13 15 7 8 1016.4 - 0.0
04/04:00am 11.0 8.6 9.9 93 0.6 SSE 13 15 7 8 1016.4 - 0.0
04/03:30am 11.4 9.0 10.1 92 0.7 SSE 13 15 7 8 1016.4 - 0.0
04/03:00am 12.1 9.8 10.3 89 0.9 SE 13 15 7 8 1016.7 1016.6 0.0
04/02:30am 12.2 9.9 10.5 89 0.9 SE 13 17 7 9 1016.8 - 0.0
04/02:00am 12.0 9.3 10.4 90 0.8 SSE 15 19 8 10 1016.7 - 0.0
04/01:30am 12.5 9.9 10.6 88 1.0 SSE 15 17 8 9 1016.7 - 0.0
04/01:00am 13.1 10.1 10.7 85 1.3 SSE 17 19 9 10 1016.8 - 0.0
04/12:30am 13.4 10.8 10.8 84 1.4 SE 15 17 8 9 1017.0 - 0.0
04/12:00am 14.0 11.1 10.9 81 1.6 SSE 17 20 9 11 1017.3 1017.2 0.0
 
Date/Time
WST
Temp
°C
App
Temp
°C
Dew
Point
Rel
Hum
%
Delta-T
°C
Wind Press
QNH
hPa
Press
MSL
hPa
Rain
since 9 am
mm
Dir
 
Spd
km/h
Gust
km/h
Spd
kts
Gust
kts
03/11:30pm 14.0 10.7 11.0 82 1.6 SSE 19 22 10 12 1017.3 - 0.0
03/11:00pm 14.1 10.9 11.3 83 1.5 SSE 19 20 10 11 1017.6 - 0.0
03/10:30pm 15.0 12.4 12.1 83 1.6 SE 17 20 9 11 1017.8 - 0.0
03/10:00pm 15.7 12.7 12.4 81 1.8 SSE 20 26 11 14 1017.8 - 0.0
03/09:30pm 16.1 14.2 14.2 88 1.1 SSE 17 22 9 12 1017.9 - 0.0
03/09:00pm 16.1 14.4 14.6 91 0.9 SSE 17 19 9 10 1017.9 1017.9 0.0
03/08:30pm 16.8 16.4 15.1 90 1.0 SE 11 13 6 7 1018.1 - 0.0
03/08:00pm 18.1 17.2 15.9 87 1.3 SSE 15 20 8 11 1017.8 - 0.0
03/07:30pm 18.6 17.7 15.9 84 1.6 SSE 15 19 8 10 1017.5 - 0.0
03/07:00pm 19.3 17.1 15.9 81 2.0 SSE 22 26 12 14 1017.0 - 0.0
03/06:30pm 19.6 17.8 15.9 79 2.2 SSE 20 26 11 14 1017.0 - 0.0
03/06:00pm 20.0 17.8 16.0 78 2.4 S 22 28 12 15 1016.6 1016.5 0.0
03/05:30pm 20.9 17.1 15.7 72 3.1 S 30 39 16 21 1016.2 - 0.0
03/05:00pm 21.6 17.2 15.1 66 3.9 S 32 43 17 23 1016.1 - 0.0
03/04:30pm 21.9 17.6 15.4 66 3.9 S 32 39 17 21 1016.0 - 0.0
03/04:00pm 22.7 18.3 15.7 64 4.2 S 33 41 18 22 1016.2 - 0.0
03/03:30pm 23.6 19.2 14.2 55 5.5 S 30 37 16 20 1016.2 - 0.0
03/03:00pm 26.0 20.9 7.5 30 9.8 SE 24 35 13 19 1016.2 1016.1 0.0
03/02:30pm 25.8 20.6 5.5 27 10.4 SE 22 30 12 16 1016.4 - 0.0
03/02:00pm 25.9 21.4 6.9 29 10.0 SE 20 24 11 13 1016.7 - 0.0
03/01:30pm 25.5 20.8 7.6 32 9.5 SE 22 32 12 17 1017.0 - 0.0
03/01:00pm 25.0 20.9 7.9 33 9.1 ESE 19 30 10 16 1017.4 - 0.0
03/12:30pm 24.4 20.5 8.8 37 8.4 ESE 19 28 10 15 1018.0 - 0.0
03/12:00pm 24.0 20.4 9.7 40 7.8 ESE 19 30 10 16 1018.6 1018.6 0.0
03/11:30am 22.9 18.6 10.6 45 6.8 SE 24 30 13 16 1019.3 - 0.0
03/11:00am 21.9 18.4 11.0 50 6.0 ESE 20 28 11 15 1019.8 - 0.0
03/10:30am 21.1 17.3 11.3 53 5.4 ESE 22 30 12 16 1020.2 - 0.0
03/10:00am 20.0 16.0 11.7 59 4.6 ESE 24 30 13 16 1020.6 - 0.0
03/09:30am 19.0 15.3 11.6 62 4.1 ESE 22 30 12 16 1021.1 - 0.0
03/09:00am 17.8 14.8 11.8 68 3.3 ESE 19 24 10 13 1021.0 1021.0 0.0
03/08:30am 16.9 14.4 12.4 75 2.5 SE 17 22 9 12 1021.1 - 0.0
03/08:00am 15.8 14.1 12.4 80 1.9 SE 13 15 7 8 1021.1 - 0.0
03/07:30am 14.4 13.7 12.0 85 1.3 ESE 7 13 4 7 1020.9 - 0.0
03/07:00am 13.0 11.3 11.1 88 1.0 ESE 11 15 6 8 1020.4 - 0.0
03/06:30am 12.3 10.9 11.0 92 0.7 ESE 9 11 5 6 1020.2 - 0.0
03/06:00am 12.5 10.9 11.4 93 0.6 E 11 15 6 8 1020.1 1020.1 0.0
03/05:30am 11.9 9.4 10.9 94 0.5 SSE 15 19 8 10 1019.9 - 0.0
03/05:00am 11.4 10.3 10.6 95 0.4 SSE 7 9 4 5 1020.0 - 0.0
03/04:30am 11.9 10.5 11.0 94 0.5 SSE 9 11 5 6 1019.8 - 0.0
03/04:00am 12.0 10.3 11.1 94 0.5 SSE 11 11 6 6 1019.7 - 0.0
03/03:30am 11.9 10.5 10.8 93 0.6 SSE 9 11 5 6 1019.6 - 0.0
03/03:00am 12.3 10.6 11.1 92 0.6 ESE 11 13 6 7 1019.5 1019.5 0.0
03/02:30am 12.0 10.2 11.0 94 0.5 ESE 11 13 6 7 1019.6 - 0.0
03/02:00am 11.8 10.0 10.7 93 0.6 SSE 11 13 6 7 1019.7 - 0.0
03/01:30am 12.1 10.3 10.9 92 0.6 SSE 11 13 6 7 1020.1 - 0.0
03/01:00am 12.6 10.9 11.3 92 0.7 SE 11 13 6 7 1020.1 - 0.0
03/12:30am 12.8 11.1 11.3 91 0.8 SSE 11 13 6 7 1019.9 - 0.0
03/12:00am 13.3 10.9 11.5 89 1.0 SSE 15 19 8 10 1020.0 1020.0 0.0
 
Date/Time
WST
Temp
°C
App
Temp
°C
Dew
Point
Rel
Hum
%
Delta-T
°C
Wind Press
QNH
hPa
Press
MSL
hPa
Rain
since 9 am
mm
Dir
 
Spd
km/h
Gust
km/h
Spd
kts
Gust
kts
02/11:30pm 14.1 11.4 11.8 86 1.2 SSE 17 20 9 11 1019.9 - 0.0
02/11:00pm 14.2 11.1 11.6 84 1.4 SSE 19 20 10 11 1020.0 - 0.0
02/10:30pm 14.5 11.8 11.8 84 1.5 SE 17 20 9 11 1020.2 - 0.0
02/10:00pm 15.1 11.9 11.8 81 1.8 SE 20 24 11 13 1020.2 - 0.0
02/09:30pm 15.7 12.1 12.0 78 2.0 SE 22 28 12 15 1020.0 - 0.0
02/09:00pm 16.3 13.2 12.2 77 2.2 SE 20 24 11 13 1020.0 1020.0 0.0
02/08:30pm 16.5 13.8 12.8 79 2.1 SE 19 24 10 13 1020.0 - 0.0
02/08:00pm 16.7 14.4 13.0 79 2.1 SE 17 20 9 11 1020.1 - 0.0
02/07:30pm 17.1 14.8 13.0 77 2.3 SE 17 20 9 11 1019.9 - 0.0
02/07:00pm 17.9 15.2 12.9 72 2.8 SSE 19 20 10 11 1019.9 - 0.0
02/06:30pm 18.3 15.3 12.6 69 3.2 S 20 26 11 14 1019.5 - 0.0
02/06:00pm 18.8 14.6 12.4 66 3.6 S 26 33 14 18 1019.1 1019.1 0.0
02/05:30pm 19.3 15.0 12.2 63 4.0 S 26 35 14 19 1018.8 - 0.0
02/05:00pm 20.1 14.3 11.6 58 4.7 S 33 41 18 22 1018.6 - 0.0
02/04:30pm 20.6 15.3 11.2 55 5.2 S 30 43 16 23 1018.5 - 0.0
02/04:00pm 20.8 15.0 10.8 52 5.5 S 32 41 17 22 1018.6 - 0.0
02/03:30pm 21.4 15.5 10.4 49 6.0 S 32 41 17 22 1018.8 - 0.0
02/03:00pm 21.5 15.9 10.1 48 6.2 S 30 39 16 21 1018.7 1018.7 0.0
02/02:30pm 22.1 17.1 9.4 44 6.8 S 26 37 14 20 1018.7 - 0.0
02/02:00pm 22.7 16.3 5.2 32 8.7 SE 28 39 15 21 1018.8 - 0.0
02/01:30pm 22.8 16.8 5.1 31 8.8 SE 26 33 14 18 1019.2 - 0.0
02/01:00pm 22.3 16.2 4.9 32 8.6 SE 26 33 14 18 1019.6 - 0.0
02/12:30pm 21.7 15.0 5.7 35 8.0 SE 30 41 16 22 1020.2 - 0.0
02/12:00pm 21.0 14.3 5.7 37 7.6 SE 30 39 16 21 1020.8 1020.8 0.0
02/11:30am 20.9 13.9 6.2 38 7.4 ESE 32 39 17 21 1021.3 - 0.0
02/11:00am 20.0 13.4 5.9 39 7.0 ESE 30 39 16 21 1021.7 - 0.0
02/10:30am 20.0 14.3 6.5 41 6.8 ESE 26 35 14 19 1022.1 - 0.0
02/10:00am 19.5 13.8 6.6 43 6.5 ESE 26 32 14 17 1022.3 - 0.0
02/09:30am 18.2 12.3 5.8 44 6.1 E 26 33 14 18 1022.3 - 0.0
02/09:00am 16.9 11.4 6.0 48 5.3 E 24 32 13 17 1022.4 1022.4 0.0
02/08:30am 15.3 10.4 6.7 56 4.2 E 22 28 12 15 1022.3 - 0.0
02/08:00am 13.2 9.7 7.2 67 2.9 ESE 15 17 8 9 1022.2 - 0.0
02/07:30am 10.9 8.3 7.8 81 1.5 E 11 13 6 7 1021.9 - 0.0
02/07:00am 7.9 5.1 6.9 93 0.5 SE 11 11 6 6 1021.7 - 0.0
02/06:30am 7.4 4.5 6.4 93 0.5 SE 11 13 6 7 1021.3 - 0.0
02/06:00am 7.9 5.8 6.6 91 0.6 SE 7 9 4 5 1021.2 1021.2 0.0
02/05:30am 8.0 5.6 6.8 92 0.6 SE 9 11 5 6 1020.9 - 0.0
02/05:00am 8.0 5.6 6.9 93 0.5 SE 9 11 5 6 1020.6 - 0.0
02/04:30am 8.3 5.5 7.0 91 0.6 SSE 11 13 6 7 1020.4 - 0.0
02/04:00am 9.1 6.0 7.2 88 0.9 SE 13 15 7 8 1020.2 - 0.0
02/03:30am 9.0 5.9 7.4 90 0.8 SSE 13 13 7 7 1020.2 - 0.0
02/03:00am 9.2 5.7 7.3 88 0.9 SSE 15 17 8 9 1020.2 1020.2 0.0
02/02:30am 9.4 6.3 7.3 87 1.0 SSE 13 15 7 8 1020.3 - 0.0
02/02:00am 9.7 6.7 7.5 86 1.0 SSE 13 17 7 9 1020.4 - 0.0
02/01:30am 9.9 6.9 7.6 85 1.1 SSE 13 15 7 8 1020.6 - 0.0
02/01:00am 10.2 6.8 7.7 84 1.2 SSE 15 17 8 9 1020.6 - 0.0
02/12:30am 10.8 7.5 7.9 82 1.4 SSE 15 17 8 9 1020.7 - 0.0
02/12:00am 10.7 7.8 8.3 85 1.2 SSE 13 13 7 7 1020.8 1020.8 0.0
 
Date/Time
WST
Temp
°C
App
Temp
°C
Dew
Point
Rel
Hum
%
Delta-T
°C
Wind Press
QNH
hPa
Press
MSL
hPa
Rain
since 9 am
mm
Dir
 
Spd
km/h
Gust
km/h
Spd
kts
Gust
kts
01/11:30pm 11.1 8.3 8.5 84 1.3 SSE 13 15 7 8 1020.8 - 0.0
01/11:00pm 11.8 8.7 8.8 82 1.5 SSE 15 17 8 9 1020.9 - 0.0
01/10:30pm 12.6 9.5 8.9 78 1.9 SSE 15 19 8 10 1021.0 - 0.0
01/10:00pm 13.3 10.2 8.9 74 2.2 SSE 15 20 8 11 1021.2 - 0.0
01/09:30pm 14.5 10.4 8.8 68 2.9 SE 20 26 11 14 1021.2 - 0.0
01/09:00pm 15.2 11.2 9.1 67 3.1 SE 20 26 11 14 1021.0 1021.0 0.0
01/08:30pm 15.8 12.1 9.5 66 3.3 SE 19 24 10 13 1020.8 - 0.0
01/08:00pm 15.5 12.7 9.9 69 2.9 SE 15 20 8 11 1020.7 - 0.0
01/07:30pm 16.4 13.2 9.9 65 3.4 SE 17 19 9 10 1020.5 - 0.0
01/07:00pm 17.2 13.3 9.5 60 4.0 SSE 20 26 11 14 1020.2 - 0.0
01/06:30pm 17.2 14.0 10.0 62 3.8 S 17 22 9 12 1020.0 - 0.0
01/06:00pm 18.0 14.1 9.4 57 4.5 S 20 28 11 15 1019.6 1019.6 0.0
01/05:30pm 18.8 14.0 8.8 52 5.2 S 24 35 13 19 1019.3 - 0.0
01/05:00pm 19.5 14.2 8.5 49 5.7 S 26 35 14 19 1019.2 - 0.0
01/04:30pm 20.7 15.4 6.7 40 7.1 S 24 35 13 19 1018.9 - 0.0
01/04:00pm 21.1 16.4 5.9 37 7.6 SSE 20 33 11 18 1019.0 - 0.0
01/03:30pm 20.9 14.9 5.2 35 7.7 SSE 26 35 14 19 1019.0 - 0.0
01/03:00pm 21.5 15.7 4.5 33 8.3 SE 24 28 13 15 1019.1 1019.1 0.0
01/02:30pm 21.1 15.3 6.4 38 7.4 S 26 32 14 17 1019.1 - 0.0
01/02:00pm 21.1 15.4 4.8 34 8.0 SE 24 39 13 21 1019.2 - 0.0
01/01:30pm 21.4 16.0 4.6 33 8.2 SSE 22 35 12 19 1019.6 - 0.0
01/01:00pm 21.2 15.5 4.8 34 8.0 SSE 24 30 13 16 1020.1 - 0.0
01/12:30pm 20.8 15.4 4.6 34 7.9 SE 22 32 12 17 1020.7 - 0.0

Other Formats:

Comma delimited format used in spreadsheet applications
http://www.bom.gov.au/fwo/IDW60801/IDW60801.94403.axf

JavaScript Object Notation format (JSON) in row-major order
http://www.bom.gov.au/fwo/IDW60801/IDW60801.94403.json